createdAt,value
2018-02-01T00:00:30.864Z,0.00
2018-02-01T00:02:24.124Z,0.00
2018-02-01T00:03:24.039Z,0.00
2018-02-01T00:05:17.429Z,0.00
2018-02-01T00:06:17.329Z,0.00
2018-02-01T00:08:10.580Z,0.00
2018-02-01T00:09:10.507Z,0.00
2018-02-01T00:11:03.776Z,0.00
2018-02-01T00:12:03.683Z,0.00
2018-02-01T00:13:56.955Z,0.00
2018-02-01T00:14:56.859Z,0.00
2018-02-01T00:16:50.115Z,0.00
2018-02-01T00:17:50.036Z,0.00
2018-02-01T00:19:43.298Z,0.00
2018-02-01T00:20:43.209Z,0.00
2018-02-01T00:22:36.460Z,0.00
2018-02-01T00:23:36.386Z,0.00
2018-02-01T00:25:29.653Z,0.00
2018-02-01T00:26:29.560Z,0.00
2018-02-01T00:28:22.821Z,0.00
2018-02-01T00:29:22.740Z,0.00
2018-02-01T00:31:16.010Z,0.00
2018-02-01T00:32:15.918Z,0.00
2018-02-01T00:34:08.691Z,0.00
2018-02-01T00:35:08.601Z,0.00
2018-02-01T00:37:01.848Z,0.00
2018-02-01T00:38:01.777Z,0.00
2018-02-01T00:39:55.047Z,0.00
2018-02-01T00:40:54.955Z,0.00
2018-02-01T00:42:48.204Z,0.00
2018-02-01T00:43:48.131Z,0.00
2018-02-01T00:45:41.430Z,0.00
2018-02-01T00:46:41.328Z,0.00
2018-02-01T00:48:34.589Z,0.00
2018-02-01T00:49:34.510Z,0.00
2018-02-01T00:51:27.892Z,0.00
2018-02-01T00:52:27.687Z,0.00
2018-02-01T00:54:20.958Z,0.00
2018-02-01T00:55:20.866Z,0.00
2018-02-01T00:57:14.113Z,0.00
2018-02-01T00:58:14.044Z,0.00
2018-02-01T01:00:07.426Z,0.00
2018-02-01T01:01:07.331Z,0.00
2018-02-01T01:03:00.695Z,0.00
2018-02-01T01:04:00.520Z,0.00
2018-02-01T01:05:53.895Z,0.00
2018-02-01T01:06:53.697Z,0.00
2018-02-01T01:08:46.949Z,0.00
2018-02-01T01:09:46.872Z,0.00
2018-02-01T01:11:40.141Z,0.00
2018-02-01T01:12:40.050Z,0.00
2018-02-01T01:14:33.430Z,0.00
2018-02-01T01:15:33.330Z,0.00
2018-02-01T01:17:26.586Z,0.00
2018-02-01T01:18:26.512Z,0.00
2018-02-01T01:20:19.776Z,0.00
2018-02-01T01:21:19.682Z,0.00
2018-02-01T01:23:13.048Z,0.00
2018-02-01T01:24:12.861Z,0.00
2018-02-01T01:26:06.134Z,0.00
2018-02-01T01:27:06.040Z,0.00
2018-02-01T01:28:59.407Z,0.00
2018-02-01T01:29:59.330Z,0.00
2018-02-01T01:31:52.597Z,0.00
2018-02-01T01:32:52.504Z,0.00
2018-02-01T01:34:45.776Z,0.00
2018-02-01T01:35:45.684Z,0.00
2018-02-01T01:37:39.044Z,0.00
2018-02-01T01:38:38.860Z,0.00
2018-02-01T01:40:32.130Z,0.00
2018-02-01T01:41:32.035Z,0.00
2018-02-01T01:43:25.405Z,0.00
2018-02-01T01:44:25.331Z,0.00
2018-02-01T01:46:18.598Z,0.00
2018-02-01T01:47:18.507Z,0.00
2018-02-01T01:49:11.753Z,0.00
2018-02-01T01:50:11.680Z,0.00
2018-02-01T01:52:04.951Z,0.00
2018-02-01T01:53:04.860Z,0.00
2018-02-01T01:54:58.239Z,0.00
2018-02-01T01:55:58.040Z,0.00
2018-02-01T01:57:51.403Z,0.00
2018-02-01T01:58:51.329Z,0.00
2018-02-01T02:00:44.604Z,0.00
2018-02-01T02:01:44.507Z,0.00
2018-02-01T02:03:37.756Z,0.00
2018-02-01T02:04:37.688Z,0.00
2018-02-01T02:06:30.958Z,0.00
2018-02-01T02:07:30.861Z,0.00
2018-02-01T02:09:24.113Z,0.00
2018-02-01T02:10:24.039Z,0.00
2018-02-01T02:12:17.428Z,0.00
2018-02-01T02:13:17.336Z,0.00
2018-02-01T02:15:10.600Z,0.00
2018-02-01T02:16:10.506Z,0.00
2018-02-01T02:18:03.869Z,0.00
2018-02-01T02:19:03.680Z,0.00
2018-02-01T02:20:56.951Z,0.00
2018-02-01T02:21:56.861Z,0.00
2018-02-01T02:23:50.220Z,0.00
2018-02-01T02:24:50.038Z,0.00
2018-02-01T02:26:43.420Z,0.00
2018-02-01T02:27:43.327Z,0.00
2018-02-01T02:29:36.580Z,0.00
2018-02-01T02:30:36.508Z,0.00
2018-02-01T02:32:29.895Z,0.00
2018-02-01T02:33:29.686Z,0.00
2018-02-01T02:35:22.957Z,0.00
2018-02-01T02:36:22.863Z,0.00
2018-02-01T02:38:16.115Z,0.00
2018-02-01T02:39:16.041Z,0.00
2018-02-01T02:41:09.423Z,0.00
2018-02-01T02:42:09.337Z,0.00
2018-02-01T02:44:02.581Z,0.00
2018-02-01T02:45:02.507Z,0.00
2018-02-01T02:46:55.785Z,0.00
2018-02-01T02:47:55.695Z,0.00
2018-02-01T02:49:48.947Z,0.00
2018-02-01T02:50:48.859Z,0.00
2018-02-01T02:52:42.131Z,0.00
2018-02-01T02:53:42.039Z,0.00
2018-02-01T02:55:35.425Z,0.00
2018-02-01T02:56:35.329Z,0.00
2018-02-01T02:58:28.580Z,0.00
2018-02-01T02:59:28.512Z,0.00
2018-02-01T03:01:21.775Z,0.00
2018-02-01T03:02:21.684Z,0.00
2018-02-01T03:04:14.938Z,0.00
2018-02-01T03:05:14.863Z,0.00
2018-02-01T03:07:08.131Z,0.00
2018-02-01T03:08:08.037Z,0.00
2018-02-01T03:10:01.413Z,0.00
2018-02-01T03:11:01.336Z,0.00
2018-02-01T03:12:54.604Z,0.00
2018-02-01T03:13:54.512Z,0.00
2018-02-01T03:15:47.781Z,0.00
2018-02-01T03:16:47.691Z,0.00
2018-02-01T03:18:40.940Z,0.00
2018-02-01T03:19:40.866Z,0.00
2018-02-01T03:21:34.247Z,0.00
2018-02-01T03:22:34.049Z,0.00
2018-02-01T03:24:27.407Z,0.00
2018-02-01T03:25:27.332Z,0.00
2018-02-01T03:27:20.600Z,0.00
2018-02-01T03:28:20.508Z,0.00
2018-02-01T03:30:13.759Z,0.00
2018-02-01T03:31:13.674Z,0.00
2018-02-01T03:33:06.946Z,0.00
2018-02-01T03:34:06.854Z,0.00
2018-02-01T03:36:00.121Z,0.00
2018-02-01T03:37:00.031Z,0.00
2018-02-01T03:38:53.280Z,0.00
2018-02-01T03:39:53.210Z,0.00
2018-02-01T03:41:46.478Z,0.00
2018-02-01T03:42:46.384Z,0.00
2018-02-01T03:44:39.631Z,0.00
2018-02-01T03:45:39.559Z,0.00
2018-02-01T03:47:32.829Z,0.00
2018-02-01T03:48:32.739Z,0.00
2018-02-01T03:50:25.990Z,0.00
2018-02-01T03:51:25.920Z,0.00
2018-02-01T03:53:19.198Z,0.00
2018-02-01T03:54:19.105Z,0.00
2018-02-01T03:56:12.486Z,0.00
2018-02-01T03:57:12.341Z,0.00
2018-02-01T03:59:05.580Z,0.00
2018-02-01T04:00:05.507Z,0.00
2018-02-01T04:01:58.782Z,0.00
2018-02-01T04:02:58.684Z,0.00
2018-02-01T04:04:51.941Z,0.00
2018-02-01T04:05:51.864Z,0.00
2018-02-01T04:07:45.133Z,0.00
2018-02-01T04:08:45.043Z,0.00
2018-02-01T04:10:38.408Z,0.00
2018-02-01T04:11:38.337Z,0.00
2018-02-01T04:13:31.600Z,0.00
2018-02-01T04:14:31.507Z,0.00
2018-02-01T04:16:24.777Z,0.00
2018-02-01T04:17:24.685Z,0.00
2018-02-01T04:19:17.932Z,0.00
2018-02-01T04:20:17.861Z,0.00
2018-02-01T04:22:11.137Z,0.00
2018-02-01T04:23:11.043Z,0.00
2018-02-01T04:25:04.407Z,0.00
2018-02-01T04:26:04.330Z,0.00
2018-02-01T04:27:57.605Z,0.00
2018-02-01T04:28:57.512Z,0.00
2018-02-01T04:30:50.759Z,0.00
2018-02-01T04:31:50.675Z,0.00
2018-02-01T04:33:43.945Z,0.00
2018-02-01T04:34:43.853Z,0.00
2018-02-01T04:36:37.121Z,0.00
2018-02-01T04:37:37.030Z,0.00
2018-02-01T04:39:30.271Z,0.00
2018-02-01T04:40:30.193Z,0.00
2018-02-01T04:42:23.483Z,0.00
2018-02-01T04:43:23.415Z,0.00
2018-02-01T04:45:16.600Z,0.00
2018-02-01T04:46:16.526Z,0.00
2018-02-01T04:48:09.791Z,0.00
2018-02-01T04:49:09.700Z,0.00
2018-02-01T04:51:02.940Z,0.00
2018-02-01T04:52:02.864Z,0.00
2018-02-01T04:53:56.132Z,0.00
2018-02-01T04:54:56.041Z,0.00
2018-02-01T04:56:49.296Z,0.00
2018-02-01T04:57:49.207Z,0.00
2018-02-01T04:59:42.446Z,0.00
2018-02-01T05:00:42.370Z,0.00
2018-02-01T05:02:35.628Z,0.00
2018-02-01T05:03:35.534Z,0.00
2018-02-01T05:05:28.774Z,0.00
2018-02-01T05:06:28.700Z,0.00
2018-02-01T05:08:21.965Z,0.00
2018-02-01T05:09:21.875Z,0.00
2018-02-01T05:11:15.237Z,0.00
2018-02-01T05:12:15.054Z,0.00
2018-02-01T05:14:08.419Z,0.00
2018-02-01T05:15:08.330Z,0.00
2018-02-01T05:17:01.608Z,0.00
2018-02-01T05:18:01.515Z,0.00
2018-02-01T05:19:54.757Z,0.00
2018-02-01T05:20:54.681Z,0.00
2018-02-01T05:22:48.455Z,0.00
2018-02-01T05:23:48.365Z,0.00
2018-02-01T05:25:41.602Z,0.00
2018-02-01T05:26:41.527Z,0.00
2018-02-01T05:28:34.798Z,0.00
2018-02-01T05:29:34.700Z,0.00
2018-02-01T05:31:27.951Z,0.00
2018-02-01T05:32:27.878Z,0.00
2018-02-01T05:34:21.145Z,0.00
2018-02-01T05:35:21.054Z,0.00
2018-02-01T05:37:14.422Z,0.00
2018-02-01T05:38:14.333Z,0.00
2018-02-01T05:40:07.572Z,0.00
2018-02-01T05:41:07.498Z,0.00
2018-02-01T05:43:00.876Z,0.00
2018-02-01T05:44:00.668Z,0.00
2018-02-01T05:45:53.920Z,0.00
2018-02-01T05:46:53.846Z,0.00
2018-02-01T05:48:47.228Z,0.00
2018-02-01T05:49:47.018Z,0.00
2018-02-01T05:51:40.261Z,0.00
2018-02-01T05:52:40.185Z,0.00
2018-02-01T05:54:33.453Z,0.00
2018-02-01T05:55:33.363Z,0.00
2018-02-01T05:57:26.628Z,0.00
2018-02-01T05:58:26.535Z,0.00
2018-02-01T06:00:19.787Z,0.00
2018-02-01T06:01:19.715Z,0.00
2018-02-01T06:03:12.981Z,0.00
2018-02-01T06:04:12.889Z,0.00
2018-02-01T06:06:06.253Z,0.00
2018-02-01T06:07:06.058Z,0.00
2018-02-01T06:08:59.318Z,0.00
2018-02-01T06:09:59.230Z,0.00
2018-02-01T06:11:52.479Z,0.00
2018-02-01T06:12:52.405Z,0.00
2018-02-01T06:14:45.671Z,0.00
2018-02-01T06:15:45.580Z,0.00
2018-02-01T06:17:38.847Z,0.00
2018-02-01T06:18:38.754Z,0.00
2018-02-01T06:20:31.996Z,0.00
2018-02-01T06:21:31.922Z,0.00
2018-02-01T06:23:25.180Z,0.00
2018-02-01T06:24:25.084Z,0.00
2018-02-01T06:26:18.405Z,0.00
2018-02-01T06:27:18.328Z,0.00
2018-02-01T06:29:11.586Z,0.00
2018-02-01T06:30:11.500Z,0.00
2018-02-01T06:32:04.858Z,0.00
2018-02-01T06:33:04.720Z,0.00
2018-02-01T06:34:57.932Z,0.00
2018-02-01T06:35:57.840Z,0.00
2018-02-01T06:37:51.158Z,0.00
2018-02-01T06:38:51.077Z,0.00
2018-02-01T06:40:44.403Z,0.00
2018-02-01T06:41:44.325Z,0.00
2018-02-01T06:43:37.588Z,0.00
2018-02-01T06:44:37.493Z,0.00
2018-02-01T06:46:30.744Z,0.00
2018-02-01T06:47:30.670Z,0.00
2018-02-01T06:49:23.939Z,0.00
2018-02-01T06:50:23.847Z,0.00
2018-02-01T06:52:17.093Z,0.00
2018-02-01T06:53:17.030Z,0.00
2018-02-01T06:55:10.421Z,0.00
2018-02-01T06:56:10.328Z,0.00
2018-02-01T06:58:03.602Z,0.00
2018-02-01T06:59:03.507Z,0.00
2018-02-01T07:00:56.875Z,0.00
2018-02-01T07:01:56.684Z,0.00
2018-02-01T07:03:49.954Z,0.00
2018-02-01T07:04:49.861Z,0.00
2018-02-01T07:06:43.109Z,0.00
2018-02-01T07:07:43.039Z,0.00
2018-02-01T07:09:36.422Z,0.00
2018-02-01T07:10:36.330Z,0.00
2018-02-01T07:12:29.579Z,0.00
2018-02-01T07:13:29.504Z,0.00
2018-02-01T07:15:22.762Z,5.63
2018-02-01T07:16:22.668Z,5.63
2018-02-01T07:18:15.939Z,5.63
2018-02-01T07:19:15.842Z,5.63
2018-02-01T07:21:09.205Z,5.63
2018-02-01T07:22:09.020Z,5.63
2018-02-01T07:24:02.279Z,5.63
2018-02-01T07:25:02.184Z,5.63
2018-02-01T07:26:55.434Z,11.25
2018-02-01T07:27:55.362Z,11.25
2018-02-01T07:29:48.631Z,11.25
2018-02-01T07:30:48.541Z,11.25
2018-02-01T07:32:41.791Z,11.25
2018-02-01T07:33:41.714Z,11.25
2018-02-01T07:35:34.985Z,16.88
2018-02-01T07:36:34.892Z,16.88
2018-02-01T07:38:28.160Z,16.88
2018-02-01T07:39:28.067Z,16.88
2018-02-01T07:41:21.317Z,16.88
2018-02-01T07:42:21.244Z,16.88
2018-02-01T07:44:14.510Z,16.88
2018-02-01T07:45:14.418Z,16.88
2018-02-01T07:47:07.669Z,22.50
2018-02-01T07:48:07.597Z,22.50
2018-02-01T07:50:00.852Z,22.50
2018-02-01T07:51:00.767Z,22.50
2018-02-01T07:52:54.010Z,22.50
2018-02-01T07:53:53.937Z,22.50
2018-02-01T07:55:47.207Z,22.50
2018-02-01T07:56:47.113Z,22.50
2018-02-01T07:58:40.426Z,28.13
2018-02-01T07:59:40.312Z,22.50
2018-02-01T08:01:33.557Z,28.13
2018-02-01T08:02:33.484Z,28.13
2018-02-01T08:04:26.806Z,28.13
2018-02-01T08:05:26.664Z,28.13
2018-02-01T08:07:19.916Z,33.75
2018-02-01T08:08:19.843Z,28.13
2018-02-01T08:10:13.104Z,28.13
2018-02-01T08:11:13.015Z,28.13
2018-02-01T08:13:06.261Z,33.75
2018-02-01T08:14:06.188Z,33.75
2018-02-01T08:15:59.572Z,33.75
2018-02-01T08:16:59.363Z,33.75
2018-02-01T08:18:52.636Z,39.38
2018-02-01T08:19:52.545Z,39.38
2018-02-01T08:21:45.782Z,45.00
2018-02-01T08:22:45.708Z,45.00
2018-02-01T08:24:38.964Z,67.50
2018-02-01T08:25:38.893Z,61.88
2018-02-01T08:27:32.136Z,56.25
2018-02-01T08:28:32.062Z,56.25
2018-02-01T08:30:25.322Z,61.88
2018-02-01T08:31:25.229Z,61.88
2018-02-01T08:33:18.594Z,61.88
2018-02-01T08:34:18.397Z,67.50
2018-02-01T08:36:11.657Z,67.50
2018-02-01T08:37:11.565Z,73.13
2018-02-01T08:39:04.947Z,73.13
2018-02-01T08:40:04.735Z,73.13
2018-02-01T08:41:58.000Z,73.13
2018-02-01T08:42:57.928Z,73.13
2018-02-01T08:44:51.193Z,73.13
2018-02-01T08:45:51.099Z,78.75
2018-02-01T08:47:44.412Z,78.75
2018-02-01T08:48:44.338Z,78.75
2018-02-01T08:50:37.637Z,78.75
2018-02-01T08:51:37.542Z,78.75
2018-02-01T08:53:31.656Z,84.38
2018-02-01T08:54:31.580Z,84.38
2018-02-01T08:56:24.961Z,90.00
2018-02-01T08:57:24.767Z,90.00
2018-02-01T08:59:18.151Z,84.38
2018-02-01T09:00:17.941Z,90.00
2018-02-01T09:02:11.187Z,90.00
2018-02-01T09:03:11.114Z,90.00
2018-02-01T09:05:04.427Z,95.63
2018-02-01T09:06:04.340Z,101.25
2018-02-01T09:07:57.589Z,106.88
2018-02-01T09:08:57.517Z,106.88
2018-02-01T09:10:50.783Z,106.88
2018-02-01T09:11:50.699Z,90.00
2018-02-01T09:13:43.947Z,106.88
2018-02-01T09:14:43.878Z,106.88
2018-02-01T09:16:37.145Z,106.88
2018-02-01T09:17:37.056Z,112.50
2018-02-01T09:19:30.427Z,118.13
2018-02-01T09:20:30.337Z,101.25
2018-02-01T09:22:23.707Z,118.13
2018-02-01T09:23:23.523Z,118.13
2018-02-01T09:25:16.827Z,73.13
2018-02-01T09:26:16.733Z,118.13
2018-02-01T09:28:09.987Z,123.75
2018-02-01T09:29:09.917Z,123.75
2018-02-01T09:31:03.187Z,129.38
2018-02-01T09:32:03.097Z,129.38
2018-02-01T09:33:56.471Z,135.00
2018-02-01T09:34:56.340Z,135.00
2018-02-01T09:36:49.737Z,106.88
2018-02-01T09:37:49.537Z,135.00
2018-02-01T09:39:42.810Z,129.38
2018-02-01T09:40:42.722Z,135.00
2018-02-01T09:42:35.974Z,129.38
2018-02-01T09:43:35.907Z,146.25
2018-02-01T09:45:29.174Z,73.13
2018-02-01T09:46:29.089Z,135.00
2018-02-01T09:48:22.414Z,129.38
2018-02-01T09:49:22.343Z,135.00
2018-02-01T09:51:15.615Z,123.75
2018-02-01T09:52:15.529Z,106.88
2018-02-01T09:54:08.781Z,129.38
2018-02-01T09:55:08.713Z,163.13
2018-02-01T09:57:01.984Z,78.75
2018-02-01T09:58:01.902Z,95.63
2018-02-01T09:59:55.169Z,78.75
2018-02-01T10:00:55.080Z,95.63
2018-02-01T10:02:48.409Z,78.75
2018-02-01T10:03:48.340Z,78.75
2018-02-01T10:05:41.623Z,78.75
2018-02-01T10:06:41.538Z,84.38
2018-02-01T10:08:34.785Z,174.38
2018-02-01T10:09:34.716Z,101.25
2018-02-01T10:11:27.986Z,151.88
2018-02-01T10:12:27.897Z,112.50
2018-02-01T10:14:21.171Z,140.63
2018-02-01T10:15:21.074Z,129.38
2018-02-01T10:17:14.428Z,196.88
2018-02-01T10:18:14.341Z,129.38
2018-02-01T10:20:07.610Z,90.00
2018-02-01T10:21:07.522Z,112.50
2018-02-01T10:23:01.634Z,180.00
2018-02-01T10:24:01.565Z,174.38
2018-02-01T10:25:54.950Z,185.63
2018-02-01T10:26:54.737Z,213.75
2018-02-01T10:28:47.988Z,202.50
2018-02-01T10:29:47.919Z,174.38
2018-02-01T10:31:41.188Z,225.00
2018-02-01T10:32:41.101Z,151.88
2018-02-01T10:34:34.491Z,163.13
2018-02-01T10:35:34.340Z,135.00
2018-02-01T10:37:27.591Z,112.50
2018-02-01T10:38:27.522Z,106.88
2018-02-01T10:40:20.796Z,101.25
2018-02-01T10:41:20.715Z,101.25
2018-02-01T10:43:13.999Z,95.63
2018-02-01T10:44:13.891Z,84.38
2018-02-01T10:46:07.283Z,73.13
2018-02-01T10:47:07.075Z,84.38
2018-02-01T10:49:00.414Z,67.50
2018-02-01T10:50:00.343Z,73.13
2018-02-01T10:51:53.612Z,101.25
2018-02-01T10:52:53.519Z,106.88
2018-02-01T10:54:46.795Z,78.75
2018-02-01T10:55:46.700Z,73.13
2018-02-01T10:57:39.948Z,73.13
2018-02-01T10:58:39.877Z,61.88
2018-02-01T11:00:33.154Z,56.25
2018-02-01T11:01:33.065Z,45.00
2018-02-01T11:03:26.409Z,45.00
2018-02-01T11:04:26.338Z,39.38
2018-02-01T11:06:19.604Z,45.00
2018-02-01T11:07:19.513Z,50.63
2018-02-01T11:09:12.886Z,50.63
2018-02-01T11:10:12.692Z,39.38
2018-02-01T11:12:05.957Z,28.13
2018-02-01T11:13:05.870Z,16.88
2018-02-01T11:14:59.136Z,22.50
2018-02-01T11:15:59.040Z,22.50
2018-02-01T11:17:52.406Z,28.13
2018-02-01T11:18:52.331Z,28.13
2018-02-01T11:20:45.718Z,16.88
2018-02-01T11:21:45.506Z,16.88
2018-02-01T11:23:38.752Z,22.50
2018-02-01T11:24:38.680Z,22.50
2018-02-01T11:26:31.975Z,22.50
2018-02-01T11:27:31.925Z,28.13
2018-02-01T11:29:25.133Z,45.00
2018-02-01T11:30:25.060Z,39.38
2018-02-01T11:32:18.441Z,39.38
2018-02-01T11:33:18.349Z,56.25
2018-02-01T11:35:11.615Z,61.88
2018-02-01T11:36:11.523Z,45.00
2018-02-01T11:38:05.768Z,28.13
2018-02-01T11:39:05.693Z,33.75
2018-02-01T11:40:58.975Z,33.75
2018-02-01T11:41:58.868Z,39.38
2018-02-01T11:43:52.108Z,45.00
2018-02-01T11:44:52.038Z,39.38
2018-02-01T11:46:45.419Z,39.38
2018-02-01T11:47:45.222Z,45.00
2018-02-01T11:49:38.468Z,39.38
2018-02-01T11:50:38.398Z,39.38
2018-02-01T11:52:31.656Z,28.13
2018-02-01T11:53:31.567Z,28.13
2018-02-01T11:55:24.839Z,33.75
2018-02-01T11:56:24.746Z,39.38
2018-02-01T11:58:17.995Z,39.38
2018-02-01T11:59:17.920Z,45.00
2018-02-01T12:01:11.184Z,56.25
2018-02-01T12:02:11.092Z,67.50
2018-02-01T12:04:04.457Z,73.13
2018-02-01T12:05:04.338Z,73.13
2018-02-01T12:06:57.600Z,61.88
2018-02-01T12:07:57.508Z,39.38
2018-02-01T12:09:50.753Z,22.50
2018-02-01T12:10:50.697Z,22.50
2018-02-01T12:12:43.942Z,28.13
2018-02-01T12:13:43.852Z,28.13
2018-02-01T12:15:37.118Z,67.50
2018-02-01T12:16:37.030Z,106.88
2018-02-01T12:18:30.272Z,123.75
2018-02-01T12:19:30.204Z,123.75
2018-02-01T12:21:23.464Z,112.50
2018-02-01T12:22:23.372Z,106.88
2018-02-01T12:24:16.616Z,95.63
2018-02-01T12:25:16.545Z,95.63
2018-02-01T12:27:09.809Z,78.75
2018-02-01T12:28:09.720Z,73.13
2018-02-01T12:30:02.967Z,84.38
2018-02-01T12:31:02.896Z,78.75
2018-02-01T12:32:56.155Z,73.13
2018-02-01T12:33:56.060Z,73.13
2018-02-01T12:35:49.460Z,78.75
2018-02-01T12:36:49.244Z,78.75
2018-02-01T12:38:42.482Z,73.13
2018-02-01T12:39:42.408Z,78.75
2018-02-01T12:41:35.691Z,78.75
2018-02-01T12:42:35.601Z,78.75
2018-02-01T12:44:28.967Z,84.38
2018-02-01T12:45:28.785Z,84.38
2018-02-01T12:47:22.172Z,73.13
2018-02-01T12:48:21.988Z,78.75
2018-02-01T12:50:15.210Z,78.75
2018-02-01T12:51:15.141Z,90.00
2018-02-01T12:53:08.430Z,78.75
2018-02-01T12:54:08.339Z,73.13
2018-02-01T12:56:01.617Z,61.88
2018-02-01T12:57:01.526Z,61.88
2018-02-01T12:58:54.772Z,73.13
2018-02-01T12:59:54.700Z,78.75
2018-02-01T13:01:47.977Z,78.75
2018-02-01T13:02:47.886Z,73.13
2018-02-01T13:04:41.132Z,67.50
2018-02-01T13:05:41.070Z,73.13
2018-02-01T13:07:34.444Z,84.38
2018-02-01T13:08:34.339Z,78.75
2018-02-01T13:10:27.704Z,67.50
2018-02-01T13:11:27.514Z,73.13
2018-02-01T13:13:20.785Z,61.88
2018-02-01T13:14:20.693Z,61.88
2018-02-01T13:16:13.983Z,56.25
2018-02-01T13:17:13.859Z,56.25
2018-02-01T13:19:07.105Z,50.63
2018-02-01T13:20:07.033Z,61.88
2018-02-01T13:22:00.431Z,56.25
2018-02-01T13:23:00.339Z,50.63
2018-02-01T13:24:53.703Z,45.00
2018-02-01T13:25:53.510Z,45.00
2018-02-01T13:27:46.786Z,45.00
2018-02-01T13:28:46.694Z,39.38
2018-02-01T13:30:39.956Z,22.50
2018-02-01T13:31:39.886Z,22.50
2018-02-01T13:33:33.268Z,22.50
2018-02-01T13:34:33.067Z,22.50
2018-02-01T13:36:26.429Z,28.13
2018-02-01T13:37:26.341Z,28.13
2018-02-01T13:39:19.578Z,22.50
2018-02-01T13:40:19.508Z,22.50
2018-02-01T13:42:12.770Z,22.50
2018-02-01T13:43:12.678Z,33.75
2018-02-01T13:45:05.938Z,33.75
2018-02-01T13:46:05.862Z,33.75
2018-02-01T13:47:59.166Z,28.13
2018-02-01T13:48:59.042Z,28.13
2018-02-01T13:50:53.284Z,28.13
2018-02-01T13:51:53.204Z,22.50
2018-02-01T13:53:46.472Z,28.13
2018-02-01T13:54:46.382Z,33.75
2018-02-01T13:56:39.643Z,33.75
2018-02-01T13:57:39.554Z,33.75
2018-02-01T13:59:32.792Z,33.75
2018-02-01T14:00:32.724Z,28.13
2018-02-01T14:02:25.982Z,16.88
2018-02-01T14:03:25.889Z,22.50
2018-02-01T14:05:19.149Z,22.50
2018-02-01T14:06:19.056Z,22.50
2018-02-01T14:08:12.322Z,22.50
2018-02-01T14:09:12.229Z,22.50
2018-02-01T14:11:05.472Z,28.13
2018-02-01T14:12:05.402Z,28.13
2018-02-01T14:13:58.657Z,22.50
2018-02-01T14:14:58.566Z,22.50
2018-02-01T14:16:51.825Z,28.13
2018-02-01T14:17:51.735Z,33.75
2018-02-01T14:19:45.104Z,33.75
2018-02-01T14:20:44.903Z,33.75
2018-02-01T14:22:38.167Z,28.13
2018-02-01T14:23:38.074Z,22.50
2018-02-01T14:25:31.320Z,22.50
2018-02-01T14:26:31.246Z,28.13
2018-02-01T14:28:24.630Z,45.00
2018-02-01T14:29:24.428Z,39.38
2018-02-01T14:31:17.788Z,28.13
2018-02-01T14:32:17.593Z,28.13
2018-02-01T14:34:10.856Z,16.88
2018-02-01T14:35:10.762Z,16.88
2018-02-01T14:37:04.265Z,11.25
2018-02-01T14:38:03.936Z,11.25
2018-02-01T14:39:57.300Z,5.63
2018-02-01T14:40:57.111Z,5.63
2018-02-01T14:42:50.427Z,11.25
2018-02-01T14:43:50.337Z,11.25
2018-02-01T14:45:43.579Z,22.50
2018-02-01T14:46:43.506Z,22.50
2018-02-01T14:48:36.778Z,22.50
2018-02-01T14:49:36.689Z,22.50
2018-02-01T14:51:29.933Z,16.88
2018-02-01T14:52:29.862Z,16.88
2018-02-01T14:54:23.129Z,16.88
2018-02-01T14:55:23.035Z,16.88
2018-02-01T14:57:16.438Z,11.25
2018-02-01T14:58:16.338Z,16.88
2018-02-01T15:00:09.595Z,16.88
2018-02-01T15:01:09.520Z,16.88
2018-02-01T15:03:02.902Z,16.88
2018-02-01T15:04:02.702Z,16.88
2018-02-01T15:05:56.078Z,11.25
2018-02-01T15:06:55.867Z,11.25
2018-02-01T15:08:49.138Z,22.50
2018-02-01T15:09:49.040Z,22.50
2018-02-01T15:11:42.410Z,16.88
2018-02-01T15:12:42.335Z,16.88
2018-02-01T15:14:35.718Z,11.25
2018-02-01T15:15:35.505Z,11.25
2018-02-01T15:17:28.768Z,5.63
2018-02-01T15:18:28.677Z,5.63
2018-02-01T15:20:21.928Z,5.63
2018-02-01T15:21:21.846Z,5.63
2018-02-01T15:23:15.108Z,5.63
2018-02-01T15:24:15.018Z,5.63
2018-02-01T15:26:08.406Z,5.63
2018-02-01T15:27:08.344Z,0.00
2018-02-01T15:29:01.721Z,0.00
2018-02-01T15:30:01.517Z,0.00
2018-02-01T15:31:54.761Z,0.00
2018-02-01T15:32:54.687Z,5.63
2018-02-01T15:34:47.962Z,0.00
2018-02-01T15:35:47.868Z,0.00
2018-02-01T15:37:41.141Z,5.63
2018-02-01T15:38:41.052Z,5.63
2018-02-01T15:40:34.413Z,5.63
2018-02-01T15:41:34.340Z,0.00
2018-02-01T15:43:28.607Z,0.00
2018-02-01T15:44:28.516Z,0.00
2018-02-01T15:46:21.758Z,0.00
2018-02-01T15:47:21.685Z,0.00
2018-02-01T15:49:14.946Z,0.00
2018-02-01T15:50:14.854Z,0.00
2018-02-01T15:52:08.110Z,0.00
2018-02-01T15:53:08.034Z,0.00
2018-02-01T15:55:01.417Z,0.00
2018-02-01T15:56:01.208Z,0.00
2018-02-01T15:57:54.596Z,0.00
2018-02-01T15:58:54.377Z,0.00
2018-02-01T16:00:47.620Z,0.00
2018-02-01T16:01:47.543Z,0.00
2018-02-01T16:03:40.803Z,0.00
2018-02-01T16:04:40.709Z,0.00
2018-02-01T16:06:33.953Z,0.00
2018-02-01T16:07:33.890Z,0.00
2018-02-01T16:09:27.141Z,0.00
2018-02-01T16:10:27.048Z,0.00
2018-02-01T16:12:20.407Z,0.00
2018-02-01T16:13:20.385Z,0.00
2018-02-01T16:15:13.106Z,0.00
2018-02-01T16:16:13.012Z,0.00
2018-02-01T16:18:06.297Z,0.00
2018-02-01T16:19:06.182Z,0.00
2018-02-01T16:20:59.545Z,0.00
2018-02-01T16:21:59.343Z,0.00
2018-02-01T16:23:52.612Z,0.00
2018-02-01T16:24:52.622Z,0.00
2018-02-01T16:26:45.760Z,0.00
2018-02-01T16:27:45.687Z,0.00
2018-02-01T16:29:38.949Z,0.00
2018-02-01T16:30:38.857Z,0.00
2018-02-01T16:32:32.107Z,0.00
2018-02-01T16:33:32.038Z,0.00
2018-02-01T16:35:25.288Z,0.00
2018-02-01T16:36:25.199Z,0.00
2018-02-01T16:38:18.462Z,0.00
2018-02-01T16:39:18.367Z,0.00
2018-02-01T16:41:11.609Z,0.00
2018-02-01T16:42:11.537Z,0.00
2018-02-01T16:44:04.801Z,0.00
2018-02-01T16:45:04.706Z,0.00
2018-02-01T16:46:57.951Z,0.00
2018-02-01T16:47:57.877Z,0.00
2018-02-01T16:49:51.137Z,0.00
2018-02-01T16:50:51.044Z,0.00
2018-02-01T16:52:44.407Z,0.00
2018-02-01T16:53:44.334Z,0.00
2018-02-01T16:55:37.603Z,0.00
2018-02-01T16:56:37.517Z,0.00
2018-02-01T16:58:30.793Z,0.00
2018-02-01T16:59:30.706Z,0.00
2018-02-01T17:01:23.957Z,0.00
2018-02-01T17:02:23.887Z,0.00
2018-02-01T17:04:17.270Z,0.00
2018-02-01T17:05:17.071Z,0.00
2018-02-01T17:07:10.408Z,0.00
2018-02-01T17:08:10.335Z,0.00
2018-02-01T17:10:03.613Z,0.00
2018-02-01T17:11:03.509Z,0.00
2018-02-01T17:12:56.758Z,0.00
2018-02-01T17:13:56.687Z,0.00
2018-02-01T17:15:49.961Z,0.00
2018-02-01T17:16:49.869Z,0.00
2018-02-01T17:18:43.143Z,0.00
2018-02-01T17:19:43.049Z,0.00
2018-02-01T17:21:36.408Z,0.00
2018-02-01T17:22:36.339Z,0.00
2018-02-01T17:24:29.605Z,0.00
2018-02-01T17:25:29.517Z,0.00
2018-02-01T17:27:22.877Z,0.00
2018-02-01T17:28:22.693Z,0.00
2018-02-01T17:30:15.956Z,0.00
2018-02-01T17:31:15.861Z,0.00
2018-02-01T17:33:09.224Z,0.00
2018-02-01T17:34:09.041Z,0.00
2018-02-01T17:36:02.431Z,0.00
2018-02-01T17:37:02.336Z,0.00
2018-02-01T17:38:55.596Z,0.00
2018-02-01T17:39:55.503Z,0.00
2018-02-01T17:41:48.754Z,0.00
2018-02-01T17:42:48.681Z,0.00
2018-02-01T17:44:41.997Z,0.00
2018-02-01T17:45:41.905Z,0.00
2018-02-01T17:47:35.151Z,0.00
2018-02-01T17:48:35.076Z,0.00
2018-02-01T17:50:28.438Z,0.00
2018-02-01T17:51:28.341Z,0.00
2018-02-01T17:53:21.703Z,0.00
2018-02-01T17:54:21.509Z,0.00
2018-02-01T17:56:14.890Z,0.00
2018-02-01T17:57:14.687Z,0.00
2018-02-01T17:59:07.949Z,0.00
2018-02-01T18:00:07.855Z,0.00
2018-02-01T18:02:01.098Z,0.00
2018-02-01T18:03:01.030Z,0.00
2018-02-01T18:04:54.439Z,0.00
2018-02-01T18:05:54.340Z,0.00
2018-02-01T18:07:47.586Z,0.00
2018-02-01T18:08:47.517Z,0.00
2018-02-01T18:10:40.764Z,0.00
2018-02-01T18:11:40.672Z,0.00
2018-02-01T18:13:33.917Z,0.00
2018-02-01T18:14:33.844Z,0.00
2018-02-01T18:16:27.120Z,0.00
2018-02-01T18:17:27.029Z,0.00
2018-02-01T18:19:20.285Z,0.00
2018-02-01T18:20:20.196Z,0.00
2018-02-01T18:22:13.433Z,0.00
2018-02-01T18:23:13.362Z,0.00
2018-02-01T18:25:06.625Z,0.00
2018-02-01T18:26:06.532Z,0.00
2018-02-01T18:27:59.771Z,0.00
2018-02-01T18:28:59.698Z,0.00
2018-02-01T18:30:52.958Z,0.00
2018-02-01T18:31:52.864Z,0.00
2018-02-01T18:33:47.100Z,0.00
2018-02-01T18:34:47.034Z,0.00
2018-02-01T18:36:40.431Z,0.00
2018-02-01T18:37:40.338Z,0.00
2018-02-01T18:39:33.606Z,0.00
2018-02-01T18:40:33.510Z,0.00
2018-02-01T18:42:26.796Z,0.00
2018-02-01T18:43:26.680Z,0.00
2018-02-01T18:45:20.059Z,0.00
2018-02-01T18:46:19.849Z,0.00
2018-02-01T18:48:13.094Z,0.00
2018-02-01T18:49:13.012Z,0.00
2018-02-01T18:51:06.270Z,0.00
2018-02-01T18:52:06.186Z,0.00
2018-02-01T18:53:59.424Z,0.00